Time;durP1;ratioP1;P1;durP2;ratioP2;P2;SDS_P1;SDS_P2;PMS_P1;PMS_P2;Temp;Humidity;BMP_temperature;BMP_pressure;BME280_temperature;BME280_humidity;BME280_pressure;Samples;Min_cycle;Max_cycle;Signal;HPM_P1;HPM_P2
2023/03/10 00:01:50;;;;;;;15.65;6.05;;;;;;;9.21;61.46;98882.67;1804621;79;21209;-58
2023/03/10 00:04:59;;;;;;;14.18;7.33;;;;;;;9.21;61.52;98881.81;1787298;79;21256;-58
2023/03/10 00:08:06;;;;;;;11.08;6.40;;;;;;;9.22;61.54;98876.66;1804640;79;21196;-58
2023/03/10 00:11:12;;;;;;;15.00;6.55;;;;;;;9.20;61.61;98874.69;1804667;79;21220;-58
2023/03/10 00:14:18;;;;;;;13.95;6.60;;;;;;;9.21;61.63;98870.90;1804652;79;21181;-58
2023/03/10 00:17:24;;;;;;;11.38;5.80;;;;;;;9.21;61.67;98879.94;1804638;79;21631;-60
2023/03/10 00:20:32;;;;;;;8.85;5.67;;;;;;;9.21;61.71;98881.30;1786130;79;21185;-60
2023/03/10 00:23:38;;;;;;;11.33;6.80;;;;;;;9.18;61.74;98878.95;1804683;79;21180;-59
2023/03/10 00:26:47;;;;;;;10.13;6.50;;;;;;;9.15;61.80;98878.00;1804648;79;21189;-58
2023/03/10 00:29:52;;;;;;;12.23;6.45;;;;;;;9.08;61.81;98883.42;1804632;79;21216;-58
2023/03/10 00:32:59;;;;;;;14.03;6.40;;;;;;;9.01;61.81;98894.00;1803718;79;21678;-58
2023/03/10 00:36:14;;;;;;;10.20;6.03;;;;;;;8.95;61.86;98894.81;1804751;79;21315;-58
2023/03/10 00:39:22;;;;;;;11.65;5.90;;;;;;;8.86;61.94;98900.12;1804522;79;21209;-58
2023/03/10 00:42:27;;;;;;;13.00;6.42;;;;;;;8.79;61.98;98910.99;1804624;79;21173;-58
2023/03/10 00:45:32;;;;;;;10.72;5.85;;;;;;;8.72;62.02;98910.64;1801970;79;21176;-59
2023/03/10 00:48:40;;;;;;;13.38;6.12;;;;;;;8.64;62.03;98918.97;1804590;79;21371;-59
2023/03/10 00:51:46;;;;;;;13.25;6.28;;;;;;;8.55;62.08;98915.55;1804595;79;21165;-59
2023/03/10 00:54:53;;;;;;;11.40;6.35;;;;;;;8.48;62.13;98917.36;1804579;79;21205;-58
2023/03/10 00:57:58;;;;;;;14.28;6.67;;;;;;;8.41;62.20;98909.67;1804394;79;21188;-59
2023/03/10 01:01:04;;;;;;;12.75;6.97;;;;;;;8.37;62.29;98914.36;1804354;79;21251;-59
2023/03/10 01:04:12;;;;;;;12.18;6.78;;;;;;;8.31;62.32;98913.80;1804546;79;21259;-59
2023/03/10 01:07:18;;;;;;;13.62;6.97;;;;;;;8.27;62.35;98910.61;1804607;79;21240;-59
2023/03/10 01:10:25;;;;;;;11.20;6.72;;;;;;;8.22;62.43;98908.11;1804635;79;21260;-58
2023/03/10 01:13:34;;;;;;;12.03;7.05;;;;;;;8.18;62.50;98913.09;1804672;79;21173;-59
2023/03/10 01:16:41;;;;;;;9.60;6.40;;;;;;;8.14;62.58;98925.95;1784472;79;21245;-58
2023/03/10 01:19:47;;;;;;;13.22;6.45;;;;;;;8.11;62.62;98924.98;1804592;79;21220;-58
2023/03/10 01:22:52;;;;;;;13.65;7.45;;;;;;;8.07;62.70;98933.25;1804371;79;21174;-57
2023/03/10 01:25:57;;;;;;;14.23;7.58;;;;;;;8.03;62.75;98935.52;1804625;79;21189;-58
2023/03/10 01:29:03;;;;;;;9.18;6.37;;;;;;;7.99;62.81;98947.82;1785547;79;21232;-57
2023/03/10 01:32:10;;;;;;;13.22;6.58;;;;;;;7.98;62.86;98953.47;1804609;79;21181;-60
2023/03/10 01:35:16;;;;;;;11.78;7.03;;;;;;;7.94;62.94;98958.48;1804631;79;21221;-59
2023/03/10 01:38:23;;;;;;;13.08;6.62;;;;;;;7.90;62.97;98953.59;1788103;79;21204;-59
2023/03/10 01:41:30;;;;;;;11.28;6.85;;;;;;;7.86;62.98;98963.20;1804600;79;21173;-58
2023/03/10 01:44:38;;;;;;;10.55;6.67;;;;;;;7.81;63.02;98954.76;1804701;79;21343;-60
2023/03/10 01:47:44;;;;;;;13.10;7.25;;;;;;;7.77;63.07;98960.28;1792696;79;21335;-58
2023/03/10 01:50:55;;;;;;;12.53;6.70;;;;;;;7.71;63.12;98964.60;1791554;80;21197;-58
2023/03/10 01:54:01;;;;;;;10.75;6.55;;;;;;;7.68;63.17;98965.50;1791515;79;21693;-59
2023/03/10 01:57:07;;;;;;;15.03;7.37;;;;;;;7.63;63.25;98969.66;1791252;79;21702;-59
2023/03/10 02:00:15;;;;;;;13.03;7.30;;;;;;;7.60;63.28;98972.77;1791779;80;21556;-59
2023/03/10 02:03:37;;;;;;;11.28;7.75;;;;;;;7.57;63.36;98977.74;1791298;79;21193;-59
2023/03/10 02:06:45;;;;;;;11.90;7.08;;;;;;;7.53;63.40;98987.34;1712736;82;21225;-59
2023/03/10 02:09:54;;;;;;;14.00;6.97;;;;;;;7.47;63.45;98988.94;1732892;81;21233;-58
2023/03/10 02:12:59;;;;;;;12.35;7.10;;;;;;;7.42;63.50;98990.02;1791676;79;21190;-58
2023/03/10 02:16:06;;;;;;;16.23;7.92;;;;;;;7.39;63.54;99002.64;1791670;80;21248;-59
2023/03/10 02:19:14;;;;;;;13.80;8.43;;;;;;;7.35;63.60;99005.44;1791382;79;21273;-58
2023/03/10 02:22:22;;;;;;;13.95;8.45;;;;;;;7.32;63.67;99012.62;1791393;80;21165;-59
2023/03/10 02:25:44;;;;;;;12.85;7.70;;;;;;;7.29;63.67;99016.23;1791756;80;21193;-58
2023/03/10 02:28:50;;;;;;;13.40;7.50;;;;;;;7.25;63.70;99025.28;1786463;79;21185;-59
2023/03/10 02:31:55;;;;;;;12.78;7.85;;;;;;;7.27;63.76;99034.11;1791642;80;21189;-59
2023/03/10 02:35:04;;;;;;;13.90;7.45;;;;;;;7.25;63.83;99041.61;1791545;79;21331;-59
2023/03/10 02:38:20;;;;;;;13.90;7.58;;;;;;;7.20;63.88;99038.59;1791392;79;21327;-58
2023/03/10 02:41:35;;;;;;;13.75;7.53;;;;;;;7.15;63.89;99049.19;1791409;80;21217;-58
2023/03/10 02:44:42;;;;;;;14.55;8.05;;;;;;;7.08;63.91;99044.19;1791634;79;21252;-59
2023/03/10 02:47:47;;;;;;;16.07;8.10;;;;;;;7.04;63.96;99050.19;1780479;78;21209;-60
2023/03/10 02:50:54;;;;;;;12.65;8.10;;;;;;;6.99;63.98;99053.98;1756224;81;21225;-58
2023/03/10 02:54:00;;;;;;;10.63;7.40;;;;;;;6.93;64.00;99062.34;1736311;81;21560;-57
2023/03/10 02:57:06;;;;;;;14.25;7.67;;;;;;;6.88;64.02;99062.59;1756223;81;21202;-58
2023/03/10 03:00:13;;;;;;;14.55;8.20;;;;;;;6.81;63.93;99066.55;1756227;81;21190;-57
2023/03/10 03:03:20;;;;;;;16.35;8.23;;;;;;;6.74;63.88;99066.13;1756223;81;21217;-58
2023/03/10 03:06:27;;;;;;;11.08;7.25;;;;;;;6.68;63.93;99071.77;1756208;81;21189;-58
2023/03/10 03:09:34;;;;;;;11.80;7.75;;;;;;;6.64;64.00;99072.32;1756082;81;21257;-59
2023/03/10 03:12:39;;;;;;;13.48;8.00;;;;;;;6.59;64.12;99082.39;1756176;81;21358;-58
2023/03/10 03:15:46;;;;;;;13.08;7.67;;;;;;;6.56;64.25;99075.10;1756261;81;21205;-58
2023/03/10 03:18:53;;;;;;;12.88;8.10;;;;;;;6.54;64.38;99080.72;1756398;81;21209;-59
2023/03/10 03:22:00;;;;;;;12.35;8.40;;;;;;;6.53;64.49;99084.48;1756204;81;21596;-60
2023/03/10 03:25:06;;;;;;;15.50;8.95;;;;;;;6.58;64.64;99088.83;1755979;81;21257;-59
2023/03/10 03:28:11;;;;;;;17.20;8.50;;;;;;;6.67;64.75;99097.78;1756145;81;21587;-59
2023/03/10 03:31:26;;;;;;;15.80;8.10;;;;;;;6.76;64.82;99105.69;1740509;81;21344;-58
2023/03/10 03:34:35;;;;;;;12.55;7.75;;;;;;;6.86;64.85;99104.93;1756381;81;21613;-58
2023/03/10 03:37:41;;;;;;;19.95;8.53;;;;;;;6.93;64.86;99102.33;1756261;81;21237;-58
2023/03/10 03:40:48;;;;;;;16.65;9.13;;;;;;;6.99;64.82;99093.42;1756185;81;21186;-58
2023/03/10 03:43:54;;;;;;;13.30;8.38;;;;;;;7.05;64.82;99098.97;1739016;81;21273;-59
2023/03/10 03:47:00;;;;;;;12.40;8.05;;;;;;;7.10;64.87;99100.59;1756261;81;21277;-59
2023/03/10 03:50:06;;;;;;;13.13;7.33;;;;;;;7.17;64.84;99109.72;1795341;78;21248;-59
2023/03/10 03:53:11;;;;;;;17.52;9.93;;;;;;;7.20;64.83;99109.34;1804553;79;21172;-58
2023/03/10 03:56:16;;;;;;;13.70;8.30;;;;;;;7.26;64.88;99122.20;1804619;79;21204;-57
2023/03/10 03:59:23;;;;;;;11.05;7.00;;;;;;;7.29;64.90;99127.28;1786576;79;21260;-58
2023/03/10 04:02:29;;;;;;;13.25;7.42;;;;;;;7.35;64.91;99136.09;1804705;79;21205;-58
2023/03/10 04:05:30;;;;;;;14.15;7.25;;;;;;;7.39;64.92;99140.11;1804500;79;21194;-59
2023/03/10 04:08:31;;;;;;;10.53;7.65;;;;;;;7.41;64.94;99135.34;1804568;79;21209;-59
2023/03/10 04:11:36;;;;;;;17.12;8.63;;;;;;;7.45;64.99;99150.25;1804573;79;21226;-58
2023/03/10 04:14:43;;;;;;;13.85;8.23;;;;;;;7.49;65.01;99157.03;1804402;79;21172;-59
2023/03/10 04:17:49;;;;;;;15.65;9.33;;;;;;;7.53;65.02;99164.32;1804286;79;21200;-59
2023/03/10 04:20:55;;;;;;;18.05;9.48;;;;;;;7.56;65.05;99172.94;1804561;79;21231;-59
2023/03/10 04:24:03;;;;;;;18.90;9.13;;;;;;;7.60;65.03;99179.72;1804011;79;21221;-61
2023/03/10 04:27:10;;;;;;;25.52;16.23;;;;;;;7.61;65.04;99181.39;1804119;79;21223;-60
2023/03/10 04:30:19;;;;;;;16.55;10.70;;;;;;;7.64;65.04;99178.30;1787438;79;21172;-58
2023/03/10 04:33:26;;;;;;;16.25;8.73;;;;;;;7.67;65.01;99187.14;1803916;79;21756;-59
2023/03/10 04:36:32;;;;;;;13.35;8.25;;;;;;;7.67;65.00;99185.27;1804014;79;21197;-59
2023/03/10 04:39:39;;;;;;;16.85;10.48;;;;;;;7.69;65.02;99180.99;1804760;79;21192;-59
2023/03/10 04:42:45;;;;;;;22.37;12.45;;;;;;;7.73;65.09;99197.28;1804488;79;21177;-59
2023/03/10 04:45:53;;;;;;;22.02;12.13;;;;;;;7.74;65.13;99197.09;1786380;79;21188;-59
2023/03/10 04:49:01;;;;;;;30.75;17.77;;;;;;;7.80;65.22;99210.49;1787877;79;21732;-58
2023/03/10 04:52:07;;;;;;;18.75;11.20;;;;;;;7.84;65.31;99203.12;1788857;80;21201;-58
2023/03/10 04:55:15;;;;;;;19.32;12.07;;;;;;;7.88;65.36;99211.77;1790036;79;21189;-58
2023/03/10 04:58:22;;;;;;;21.07;12.88;;;;;;;7.92;65.44;99216.66;1788791;80;21785;-57
2023/03/10 05:01:33;;;;;;;15.13;10.72;;;;;;;7.97;65.51;99214.72;1788439;80;21201;-58
2023/03/10 05:04:38;;;;;;;13.58;9.13;;;;;;;8.03;65.58;99220.77;1788759;80;21198;-59
2023/03/10 05:07:44;;;;;;;14.73;9.50;;;;;;;8.06;65.61;99220.39;1788879;80;21190;-58
2023/03/10 05:10:50;;;;;;;14.25;8.80;;;;;;;8.08;65.67;99219.19;1788291;80;21578;-59
2023/03/10 05:13:58;;;;;;;14.15;9.45;;;;;;;8.11;65.71;99228.35;1788350;80;21229;-59
2023/03/10 05:17:04;;;;;;;15.20;9.78;;;;;;;8.13;65.78;99226.80;1787876;80;21197;-58
2023/03/10 05:20:12;;;;;;;13.90;9.35;;;;;;;8.17;65.82;99237.64;1788687;79;21202;-58
2023/03/10 05:23:19;;;;;;;11.83;8.95;;;;;;;8.21;65.87;99249.88;1787813;80;21213;-58
2023/03/10 05:26:26;;;;;;;13.40;9.13;;;;;;;8.23;65.91;99251.39;1789295;79;21228;-58
2023/03/10 05:29:34;;;;;;;13.72;9.85;;;;;;;8.27;65.98;99260.05;1788746;80;21244;-59
2023/03/10 05:32:42;;;;;;;13.70;10.48;;;;;;;8.32;66.06;99260.33;1788903;80;21205;-57
2023/03/10 05:35:49;;;;;;;14.38;11.28;;;;;;;8.35;66.04;99282.63;1788917;80;21194;-59
2023/03/10 05:38:56;;;;;;;12.93;9.95;;;;;;;8.31;66.00;99282.66;1789453;79;21171;-58
2023/03/10 05:42:04;;;;;;;17.45;12.63;;;;;;;8.27;65.94;99292.25;1790003;79;21355;-58
2023/03/10 05:45:12;;;;;;;13.62;10.53;;;;;;;8.25;66.03;99294.31;1789380;79;21835;-58
2023/03/10 05:48:18;;;;;;;15.58;11.68;;;;;;;8.27;66.12;99301.80;1784967;79;21501;-58
2023/03/10 05:51:23;;;;;;;15.78;11.68;;;;;;;8.33;66.19;99301.55;1787649;79;21243;-58
2023/03/10 05:54:30;;;;;;;14.90;11.22;;;;;;;8.33;66.13;99311.95;1791252;79;21914;-60
2023/03/10 05:57:36;;;;;;;17.57;11.48;;;;;;;8.36;66.15;99322.98;1754235;81;21244;-58
2023/03/10 06:00:41;;;;;;;17.90;11.55;;;;;;;8.40;66.21;99325.68;1751057;79;21205;-57
2023/03/10 06:03:50;;;;;;;16.93;11.08;;;;;;;8.42;66.22;99335.35;1795425;78;21769;-58
2023/03/10 06:07:02;;;;;;;14.78;11.45;;;;;;;8.44;66.18;99341.98;1798355;78;21695;-56
2023/03/10 06:10:08;;;;;;;15.45;11.38;;;;;;;8.43;66.17;99346.61;1801796;79;21182;-57
2023/03/10 06:13:14;;;;;;;16.07;12.18;;;;;;;8.47;66.18;99359.33;1799388;79;21204;-56
2023/03/10 06:16:21;;;;;;;24.20;16.73;;;;;;;8.48;66.13;99361.04;1792643;79;21194;-56
2023/03/10 06:19:31;;;;;;;14.13;10.28;;;;;;;8.45;66.13;99375.87;1766629;80;21204;-57
2023/03/10 06:22:37;;;;;;;12.65;9.33;;;;;;;8.44;66.15;99380.16;1772021;78;21733;-56
2023/03/10 06:25:43;;;;;;;16.48;10.68;;;;;;;8.34;66.03;99387.24;1818600;78;21190;-57
2023/03/10 06:28:53;;;;;;;15.90;10.65;;;;;;;8.18;65.93;99389.27;1803818;78;21803;-56
2023/03/10 06:32:00;;;;;;;13.98;8.58;;;;;;;8.04;65.86;99405.07;1775220;79;21773;-57
2023/03/10 06:35:07;;;;;;;12.47;8.25;;;;;;;7.84;65.84;99402.49;1771918;80;21225;-57
2023/03/10 06:38:14;;;;;;;11.63;7.15;;;;;;;7.72;65.90;99420.30;1772393;81;21614;-56
2023/03/10 06:41:21;;;;;;;10.10;6.05;;;;;;;7.58;65.87;99436.89;1772853;81;21188;-55
2023/03/10 06:44:26;;;;;;;11.33;5.80;;;;;;;7.37;65.78;99435.34;1772592;81;21658;-56
2023/03/10 06:47:33;;;;;;;7.35;4.90;;;;;;;7.21;65.86;99449.88;1773804;79;21228;-57
2023/03/10 06:50:41;;;;;;;6.62;4.67;;;;;;;7.02;65.79;99454.89;1793404;79;21318;-55
2023/03/10 06:53:49;;;;;;;7.35;4.10;;;;;;;6.88;65.91;99471.41;1786081;80;21179;-57
2023/03/10 06:56:57;;;;;;;6.08;4.08;;;;;;;6.77;66.03;99482.66;1792502;80;21210;-57
2023/03/10 07:00:10;;;;;;;7.95;4.85;;;;;;;6.70;66.04;99485.76;1793136;80;21219;-57
2023/03/10 07:03:15;;;;;;;6.87;4.08;;;;;;;6.65;66.13;99493.58;1789405;79;21227;-56
2023/03/10 07:06:23;;;;;;;5.83;4.12;;;;;;;6.62;66.24;99502.09;1761869;81;21197;-57
2023/03/10 07:09:30;;;;;;;6.80;4.58;;;;;;;6.59;66.24;99498.36;1787654;80;21563;-57
2023/03/10 07:12:35;;;;;;;8.48;5.50;;;;;;;6.54;66.31;99499.88;1787037;80;21248;-56
2023/03/10 07:15:42;;;;;;;8.53;4.83;;;;;;;6.54;66.35;99508.89;1791622;80;21193;-57
2023/03/10 07:18:50;;;;;;;7.05;4.72;;;;;;;6.50;66.41;99510.23;1777943;78;21761;-56
2023/03/10 07:21:57;;;;;;;9.13;5.62;;;;;;;6.54;66.47;99506.17;1783372;79;21528;-58
2023/03/10 07:25:04;;;;;;;8.15;4.40;;;;;;;6.57;66.47;99508.55;1783687;80;21273;-58
2023/03/10 07:28:10;;;;;;;5.83;4.65;;;;;;;6.59;66.50;99510.59;1777961;79;21426;-58
2023/03/10 07:31:18;;;;;;;8.55;4.85;;;;;;;6.66;66.63;99521.10;1771018;78;21205;-56
2023/03/10 07:34:24;;;;;;;7.20;4.30;;;;;;;6.68;66.55;99525.86;1783333;78;21189;-56
2023/03/10 07:37:36;;;;;;;9.00;5.00;;;;;;;6.58;66.28;99531.98;1777092;79;21237;-56
2023/03/10 07:40:43;;;;;;;7.20;5.00;;;;;;;6.36;66.06;99531.31;1776218;79;21178;-56
2023/03/10 07:43:50;;;;;;;8.83;4.50;;;;;;;6.25;66.16;99534.91;1761781;79;21155;-57
2023/03/10 07:46:58;;;;;;;9.73;4.70;;;;;;;6.18;66.21;99548.31;1769617;79;21190;-58
2023/03/10 07:50:06;;;;;;;9.25;5.87;;;;;;;6.23;66.32;99554.09;1781600;78;21788;-57
2023/03/10 07:53:18;;;;;;;9.53;6.05;;;;;;;6.27;66.45;99564.95;1779446;78;21822;-56
2023/03/10 07:56:24;;;;;;;9.93;5.20;;;;;;;6.34;66.54;99570.56;1786308;79;21224;-56
2023/03/10 07:59:30;;;;;;;10.78;6.20;;;;;;;6.42;66.57;99574.65;1783853;78;21184;-56
2023/03/10 08:02:36;;;;;;;10.10;6.80;;;;;;;6.45;66.48;99567.52;1779839;79;21185;-55
2023/03/10 08:05:48;;;;;;;7.58;4.85;;;;;;;6.44;66.50;99581.61;1788256;78;21303;-57
2023/03/10 08:08:57;;;;;;;6.62;4.30;;;;;;;6.53;66.54;99596.92;1740787;81;21723;-57
2023/03/10 08:12:07;;;;;;;8.03;4.30;;;;;;;6.62;66.50;99614.93;1791576;77;21849;-57
2023/03/10 08:15:15;;;;;;;7.75;5.12;;;;;;;6.66;66.43;99621.72;1786018;78;21527;-56
2023/03/10 08:18:24;;;;;;;8.43;3.87;;;;;;;6.81;66.50;99639.07;1786439;78;21765;-56
2023/03/10 08:21:32;;;;;;;5.90;3.60;;;;;;;6.83;66.44;99646.55;1786500;79;21184;-56
2023/03/10 08:24:39;;;;;;;10.82;4.08;;;;;;;6.89;66.48;99647.23;1785794;78;21189;-56
2023/03/10 08:27:47;;;;;;;6.90;4.40;;;;;;;6.98;66.58;99659.80;1779259;79;21231;-57
2023/03/10 08:30:54;;;;;;;8.43;4.17;;;;;;;7.05;66.55;99668.13;1767275;79;21185;-56
2023/03/10 08:34:03;;;;;;;7.35;3.67;;;;;;;7.01;66.30;99675.78;1787958;79;21354;-57
2023/03/10 08:37:11;;;;;;;6.25;3.45;;;;;;;6.83;66.05;99675.62;1783933;79;21166;-59
2023/03/10 08:40:21;;;;;;;5.28;3.27;;;;;;;6.83;66.25;99677.84;1776904;79;21188;-57
2023/03/10 08:43:27;;;;;;;6.12;3.25;;;;;;;6.88;66.26;99683.59;1793087;79;21321;-56
2023/03/10 08:46:34;;;;;;;7.10;3.42;;;;;;;6.86;66.16;99682.94;1752459;81;21795;-56
2023/03/10 08:49:41;;;;;;;5.80;3.67;;;;;;;6.82;66.11;99680.20;1762829;80;21286;-56
2023/03/10 08:52:47;;;;;;;9.75;3.85;;;;;;;6.85;66.10;99679.02;1796725;78;21247;-58
2023/03/10 08:55:55;;;;;;;6.45;3.25;;;;;;;6.93;66.27;99686.66;1797467;79;21341;-56
2023/03/10 08:59:02;;;;;;;6.78;3.55;;;;;;;7.08;66.38;99689.05;1796005;79;21260;-57
2023/03/10 09:02:08;;;;;;;6.03;3.17;;;;;;;7.13;66.30;99689.41;1764700;81;21252;-58
2023/03/10 09:05:17;;;;;;;5.78;3.50;;;;;;;7.13;66.17;99699.42;1765190;80;21196;-57
2023/03/10 09:08:22;;;;;;;6.22;3.65;;;;;;;7.13;66.22;99704.87;1750866;81;21773;-56
2023/03/10 09:11:33;;;;;;;7.78;3.95;;;;;;;7.15;66.15;99704.20;1765355;80;21264;-55
2023/03/10 09:14:40;;;;;;;6.45;4.30;;;;;;;7.11;66.12;99715.92;1771148;80;21234;-57
2023/03/10 09:17:49;;;;;;;6.10;3.20;;;;;;;7.19;66.28;99715.06;1761477;80;21188;-58
2023/03/10 09:20:54;;;;;;;6.25;3.35;;;;;;;7.36;66.36;99718.97;1789701;80;21485;-56
2023/03/10 09:23:59;;;;;;;6.62;3.37;;;;;;;7.30;66.09;99725.11;1796697;79;21213;-57
2023/03/10 09:27:06;;;;;;;8.13;3.20;;;;;;;7.31;66.04;99729.52;1798049;80;21524;-58
2023/03/10 09:30:14;;;;;;;24.10;12.33;;;;;;;7.38;66.05;99729.69;1790472;80;21263;-57
2023/03/10 09:33:25;;;;;;;17.23;8.08;;;;;;;7.44;65.97;99734.44;1769822;80;21174;-57
2023/03/10 09:36:31;;;;;;;8.40;3.47;;;;;;;7.56;66.08;99733.08;1768177;80;21173;-58
2023/03/10 09:39:38;;;;;;;7.25;3.70;;;;;;;7.56;65.82;99731.19;1790872;79;21181;-57
2023/03/10 09:42:57;;;;;;;8.45;4.33;;;;;;;7.43;65.59;99730.89;1798098;79;21335;-57
2023/03/10 09:46:21;;;;;;;12.90;5.50;;;;;;;7.49;65.90;99715.22;1798448;79;21396;-51
2023/03/10 09:49:46;;;;;;;8.85;4.45;;;;;;;7.52;65.79;99732.57;1766824;81;21256;-57
2023/03/10 09:53:06;;;;;;;7.65;3.92;;;;;;;7.55;65.78;99736.31;1766504;80;21255;-58
2023/03/10 09:56:19;;;;;;;5.95;3.70;;;;;;;7.47;65.66;99739.53;1768745;79;21609;-59
2023/03/10 09:59:38;;;;;;;9.45;5.05;;;;;;;7.54;65.85;99734.62;1792434;79;21232;-60
2023/03/10 10:02:48;;;;;;;13.10;6.05;;;;;;;7.64;65.88;99748.05;1771202;81;22037;-58
2023/03/10 10:06:00;;;;;;;9.93;6.17;;;;;;;7.68;65.91;99747.17;1770994;80;21228;-61
2023/03/10 10:09:13;;;;;;;6.25;4.08;;;;;;;7.76;65.92;99737.62;1782918;79;21802;-63
2023/03/10 10:12:22;;;;;;;6.25;3.27;;;;;;;7.81;65.81;99737.95;1732605;82;21766;-62
2023/03/10 10:15:31;;;;;;;5.00;3.10;;;;;;;7.76;65.62;99726.73;1770153;81;21777;-60
2023/03/10 10:18:49;;;;;;;6.30;4.12;;;;;;;7.82;65.80;99728.78;1770601;80;21228;-61
2023/03/10 10:22:06;;;;;;;4.67;2.72;;;;;;;7.97;66.02;99727.02;1795131;79;21233;-61
2023/03/10 10:25:28;;;;;;;8.03;3.15;;;;;;;8.17;66.07;99740.06;1800586;79;21217;-60
2023/03/10 10:28:59;;;;;;;3.98;2.40;;;;;;;8.29;65.89;99733.75;1799280;79;21784;-60
2023/03/10 10:32:17;;;;;;;3.17;2.22;;;;;;;8.43;65.84;99717.99;1802069;79;21175;-61
2023/03/10 10:35:26;;;;;;;5.12;2.27;;;;;;;8.47;65.58;99717.45;1802375;79;21229;-61
2023/03/10 10:38:37;;;;;;;5.03;3.75;;;;;;;8.44;65.55;99727.36;1800918;79;21394;-62
2023/03/10 10:41:42;;;;;;;8.58;3.55;;;;;;;8.44;65.47;99708.77;1765343;81;21197;-60
2023/03/10 10:44:49;;;;;;;5.58;3.37;;;;;;;8.40;65.34;99715.12;1797504;79;21185;-62
